createdAt,value
2022-08-11T00:00:52.506Z,85.66
2022-08-11T00:01:52.453Z,85.55
2022-08-11T00:02:52.495Z,85.66
2022-08-11T00:03:52.424Z,85.80
2022-08-11T00:04:52.417Z,86.16
2022-08-11T00:05:52.419Z,85.86
2022-08-11T00:06:52.401Z,86.37
2022-08-11T00:07:52.396Z,86.68
2022-08-11T00:08:52.370Z,86.77
2022-08-11T00:09:52.364Z,86.27
2022-08-11T00:10:52.359Z,86.16
2022-08-11T00:11:52.336Z,85.86
2022-08-11T00:12:52.357Z,86.16
2022-08-11T00:13:52.319Z,86.68
2022-08-11T00:14:52.336Z,86.27
2022-08-11T00:15:52.296Z,86.57
2022-08-11T00:16:52.285Z,86.31
2022-08-11T00:17:52.277Z,85.76
2022-08-11T00:18:52.281Z,85.49
2022-08-11T00:20:14.592Z,85.05
2022-08-11T00:20:53.352Z,85.80
2022-08-11T00:22:03.897Z,85.25
2022-08-11T00:22:53.263Z,86.00
2022-08-11T00:23:52.211Z,86.00
2022-08-11T00:24:56.027Z,86.21
2022-08-11T00:25:53.180Z,85.70
2022-08-11T00:26:52.227Z,86.41
2022-08-11T00:27:52.164Z,85.70
2022-08-11T00:28:52.166Z,86.21
2022-08-11T00:29:52.145Z,86.00
2022-08-11T00:30:52.126Z,85.70
2022-08-11T00:31:52.225Z,86.41
2022-08-11T00:32:52.112Z,85.80
2022-08-11T00:33:52.099Z,87.29
2022-08-11T00:34:52.086Z,86.77
2022-08-11T00:35:57.257Z,87.38
2022-08-11T00:36:52.064Z,87.29
2022-08-11T00:37:52.067Z,87.59
2022-08-11T00:38:52.053Z,87.38
2022-08-11T00:39:52.104Z,87.49
2022-08-11T00:40:52.031Z,88.34
2022-08-11T00:41:53.736Z,87.99
2022-08-11T00:42:52.002Z,88.20
2022-08-11T00:43:52.035Z,87.99
2022-08-11T00:44:52.019Z,87.99
2022-08-11T00:45:51.988Z,88.30
2022-08-11T00:46:51.951Z,87.89
2022-08-11T00:47:51.959Z,87.89
2022-08-11T00:48:51.945Z,87.89
2022-08-11T00:49:51.924Z,87.69
2022-08-11T00:50:51.916Z,87.49
2022-08-11T00:52:04.133Z,87.59
2022-08-11T00:52:52.898Z,87.18
2022-08-11T00:53:51.879Z,86.98
2022-08-11T00:54:51.875Z,87.38
2022-08-11T00:55:55.791Z,87.38
2022-08-11T00:56:51.855Z,87.49
2022-08-11T00:57:51.842Z,87.59
2022-08-11T00:58:51.839Z,87.79
2022-08-11T00:59:51.829Z,87.49
2022-08-11T01:00:51.843Z,87.69
2022-08-11T01:01:51.791Z,87.59
2022-08-11T01:02:51.951Z,87.79
2022-08-11T01:03:51.777Z,87.29
2022-08-11T01:04:55.657Z,87.29
2022-08-11T01:05:51.754Z,87.38
2022-08-11T01:06:51.731Z,87.45
2022-08-11T01:08:02.129Z,87.55
2022-08-11T01:08:52.730Z,87.79
2022-08-11T01:09:51.706Z,87.29
2022-08-11T01:10:51.685Z,87.75
2022-08-11T01:11:55.919Z,87.85
2022-08-11T01:12:51.668Z,87.65
2022-08-11T01:13:51.663Z,87.65
2022-08-11T01:14:51.658Z,87.75
2022-08-11T01:15:56.012Z,87.69
2022-08-11T01:16:52.628Z,87.65
2022-08-11T01:17:51.618Z,87.89
2022-08-11T01:18:51.606Z,87.24
2022-08-11T01:20:46.666Z,87.49
2022-08-11T01:20:52.614Z,86.98
2022-08-11T01:21:51.590Z,87.29
2022-08-11T01:22:51.560Z,87.18
2022-08-11T01:23:51.547Z,87.89
2022-08-11T01:24:51.568Z,86.98
2022-08-11T01:25:57.146Z,87.29
2022-08-11T01:26:52.666Z,86.77
2022-08-11T01:27:51.511Z,86.88
2022-08-11T01:28:51.491Z,87.08
2022-08-11T01:29:51.484Z,87.08
2022-08-11T01:30:54.160Z,87.49
2022-08-11T01:31:51.467Z,87.59
2022-08-11T01:32:51.466Z,87.49
2022-08-11T01:33:51.438Z,86.88
2022-08-11T01:34:51.423Z,86.88
2022-08-11T01:35:51.413Z,86.77
2022-08-11T01:36:56.722Z,86.33
2022-08-11T01:37:52.418Z,87.38
2022-08-11T01:38:51.381Z,87.18
2022-08-11T01:39:51.416Z,87.18
2022-08-11T01:40:51.374Z,86.77
2022-08-11T01:41:51.357Z,86.98
2022-08-11T01:42:51.332Z,85.96
2022-08-11T01:43:51.331Z,86.27
2022-08-11T01:44:51.324Z,85.86
2022-08-11T01:45:51.309Z,86.27
2022-08-11T01:46:51.302Z,85.66
2022-08-11T01:47:52.984Z,86.68
2022-08-11T01:48:51.272Z,86.68
2022-08-11T01:50:08.186Z,87.79
2022-08-11T01:50:52.303Z,87.59
2022-08-11T01:51:51.252Z,87.49
2022-08-11T01:52:51.234Z,87.18
2022-08-11T01:53:51.220Z,86.77
2022-08-11T01:54:51.209Z,86.07
2022-08-11T01:55:51.219Z,86.77
2022-08-11T01:56:51.183Z,86.88
2022-08-11T01:57:51.197Z,87.38
2022-08-11T01:58:51.161Z,87.38
2022-08-11T01:59:51.153Z,87.59
2022-08-11T02:00:51.191Z,87.49
2022-08-11T02:01:51.141Z,87.69
2022-08-11T02:02:51.126Z,87.49
2022-08-11T02:03:51.129Z,88.50
2022-08-11T02:04:51.103Z,87.99
2022-08-11T02:05:51.091Z,87.69
2022-08-11T02:06:51.082Z,86.27
2022-08-11T02:07:51.072Z,86.77
2022-08-11T02:08:51.064Z,86.57
2022-08-11T02:09:51.956Z,87.69
2022-08-11T02:10:51.519Z,86.98
2022-08-11T02:11:51.177Z,87.38
2022-08-11T02:12:51.244Z,87.08
2022-08-11T02:13:50.994Z,86.57
2022-08-11T02:14:53.525Z,87.49
2022-08-11T02:15:51.975Z,87.49
2022-08-11T02:16:50.980Z,87.18
2022-08-11T02:17:50.967Z,87.29
2022-08-11T02:18:50.948Z,87.69
2022-08-11T02:19:50.938Z,87.59
2022-08-11T02:20:50.920Z,87.79
2022-08-11T02:21:50.911Z,86.88
2022-08-11T02:22:50.905Z,87.18
2022-08-11T02:24:05.836Z,87.38
2022-08-11T02:24:51.885Z,87.49
2022-08-11T02:25:50.871Z,86.98
2022-08-11T02:26:50.865Z,87.93
2022-08-11T02:27:50.865Z,87.32
2022-08-11T02:28:50.859Z,87.93
2022-08-11T02:29:50.823Z,88.34
2022-08-11T02:30:50.820Z,87.93
2022-08-11T02:32:15.793Z,87.93
2022-08-11T02:32:51.795Z,88.24
2022-08-11T02:33:50.789Z,88.24
2022-08-11T02:35:00.142Z,88.28
2022-08-11T02:35:51.831Z,87.98
2022-08-11T02:36:50.758Z,86.71
2022-08-11T02:37:50.743Z,85.80
2022-08-11T02:38:50.725Z,85.80
2022-08-11T02:39:50.766Z,85.96
2022-08-11T02:40:50.757Z,87.23
2022-08-11T02:41:50.700Z,86.82
2022-08-11T02:42:50.696Z,86.92
2022-08-11T02:43:51.073Z,87.32
2022-08-11T02:44:50.680Z,87.02
2022-08-11T02:45:50.651Z,86.92
2022-08-11T02:46:50.708Z,87.63
2022-08-11T02:47:50.636Z,87.32
2022-08-11T02:48:50.630Z,87.73
2022-08-11T02:50:06.313Z,87.43
2022-08-11T02:50:51.593Z,86.71
2022-08-11T02:51:50.599Z,87.43
2022-08-11T02:52:50.606Z,86.71
2022-08-11T02:53:58.258Z,87.32
2022-08-11T02:54:51.561Z,87.63
2022-08-11T02:55:57.838Z,87.23
2022-08-11T02:56:51.533Z,87.32
2022-08-11T02:57:50.535Z,87.43
2022-08-11T02:58:50.523Z,87.23
2022-08-11T02:59:50.496Z,87.63
2022-08-11T03:00:50.485Z,86.61
2022-08-11T03:01:50.513Z,86.82
2022-08-11T03:02:50.468Z,86.61
2022-08-11T03:03:50.466Z,87.32
2022-08-11T03:04:50.441Z,87.02
2022-08-11T03:05:50.480Z,87.12
2022-08-11T03:06:50.418Z,86.71
2022-08-11T03:07:50.407Z,87.23
2022-08-11T03:08:50.399Z,87.23
2022-08-11T03:09:50.414Z,86.16
2022-08-11T03:10:50.379Z,87.32
2022-08-11T03:11:50.365Z,87.23
2022-08-11T03:12:53.694Z,86.57
2022-08-11T03:13:50.350Z,86.37
2022-08-11T03:14:50.344Z,85.86
2022-08-11T03:15:50.328Z,86.57
2022-08-11T03:16:50.310Z,86.71
2022-08-11T03:17:50.309Z,86.31
2022-08-11T03:18:50.297Z,85.70
2022-08-11T03:19:50.376Z,86.37
2022-08-11T03:20:50.261Z,85.46
2022-08-11T03:22:01.394Z,86.00
2022-08-11T03:22:51.251Z,85.96
2022-08-11T03:23:50.231Z,86.27
2022-08-11T03:24:50.218Z,86.27
2022-08-11T03:25:50.229Z,86.07
2022-08-11T03:26:50.196Z,86.37
2022-08-11T03:27:50.254Z,85.96
2022-08-11T03:28:50.179Z,85.46
2022-08-11T03:29:50.168Z,85.76
2022-08-11T03:30:50.165Z,85.80
2022-08-11T03:31:50.157Z,86.07
2022-08-11T03:32:50.131Z,85.76
2022-08-11T03:33:50.122Z,85.70
2022-08-11T03:34:50.129Z,85.86
2022-08-11T03:35:50.100Z,86.27
2022-08-11T03:37:15.469Z,85.76
2022-08-11T03:37:51.133Z,85.90
2022-08-11T03:38:50.072Z,85.96
2022-08-11T03:39:52.719Z,86.77
2022-08-11T03:40:51.071Z,87.29
2022-08-11T03:42:03.180Z,86.31
2022-08-11T03:42:51.037Z,86.27
2022-08-11T03:43:58.109Z,87.29
2022-08-11T03:44:51.010Z,86.68
2022-08-11T03:45:49.995Z,86.57
2022-08-11T03:46:49.981Z,86.71
2022-08-11T03:47:54.980Z,87.18
2022-08-11T03:48:50.971Z,87.43
2022-08-11T03:49:49.982Z,87.93
2022-08-11T03:50:54.820Z,87.63
2022-08-11T03:51:51.888Z,87.59
2022-08-11T03:52:49.933Z,87.43
2022-08-11T03:53:49.923Z,87.02
2022-08-11T03:54:49.892Z,87.32
2022-08-11T03:55:49.884Z,87.53
2022-08-11T03:56:49.882Z,86.82
2022-08-11T03:57:49.874Z,87.43
2022-08-11T03:58:49.853Z,86.71
2022-08-11T03:59:49.845Z,86.27
2022-08-11T04:00:49.848Z,87.63
2022-08-11T04:01:49.876Z,87.73
2022-08-11T04:02:49.814Z,87.43
2022-08-11T04:03:49.814Z,86.92
2022-08-11T04:04:51.268Z,87.73
2022-08-11T04:05:49.768Z,87.23
2022-08-11T04:06:49.762Z,87.73
2022-08-11T04:07:49.758Z,87.23
2022-08-11T04:08:49.764Z,86.92
2022-08-11T04:09:49.731Z,86.31
2022-08-11T04:10:49.722Z,86.31
2022-08-11T04:11:49.714Z,85.96
2022-08-11T04:12:49.958Z,87.29
2022-08-11T04:13:49.679Z,86.98
2022-08-11T04:14:49.673Z,86.68
2022-08-11T04:15:49.669Z,86.57
2022-08-11T04:16:49.685Z,85.76
2022-08-11T04:17:49.675Z,87.29
2022-08-11T04:18:49.632Z,86.61
2022-08-11T04:19:49.620Z,86.61
2022-08-11T04:20:49.628Z,87.43
2022-08-11T04:21:49.613Z,86.82
2022-08-11T04:22:49.595Z,87.53
2022-08-11T04:24:36.542Z,87.53
2022-08-11T04:24:50.790Z,87.32
2022-08-11T04:25:58.106Z,87.12
2022-08-11T04:26:50.555Z,86.71
2022-08-11T04:27:49.524Z,87.49
2022-08-11T04:28:50.356Z,86.88
2022-08-11T04:30:02.004Z,87.23
2022-08-11T04:30:50.508Z,87.23
2022-08-11T04:31:51.454Z,86.71
2022-08-11T04:32:49.542Z,86.31
2022-08-11T04:33:49.498Z,86.77
2022-08-11T04:34:49.455Z,87.23
2022-08-11T04:35:51.358Z,86.77
2022-08-11T04:36:49.449Z,86.82
2022-08-11T04:37:51.322Z,87.29
2022-08-11T04:38:49.418Z,86.77
2022-08-11T04:39:49.513Z,86.77
2022-08-11T04:40:49.393Z,87.18
2022-08-11T04:41:49.463Z,86.88
2022-08-11T04:42:49.436Z,86.98
2022-08-11T04:44:02.385Z,86.88
2022-08-11T04:44:50.350Z,86.47
2022-08-11T04:45:49.355Z,86.68
2022-08-11T04:46:49.331Z,87.18
2022-08-11T04:48:01.859Z,87.49
2022-08-11T04:48:50.301Z,87.29
2022-08-11T04:49:49.299Z,87.49
2022-08-11T04:51:08.693Z,87.59
2022-08-11T04:51:50.296Z,87.49
2022-08-11T04:52:49.279Z,87.38
2022-08-11T04:53:52.380Z,86.98
2022-08-11T04:54:49.241Z,86.47
2022-08-11T04:55:49.247Z,87.08
2022-08-11T04:56:49.273Z,86.47
2022-08-11T04:57:49.202Z,86.68
2022-08-11T04:58:49.187Z,87.24
2022-08-11T04:59:49.180Z,87.18
2022-08-11T05:00:49.173Z,87.29
2022-08-11T05:01:49.306Z,86.68
2022-08-11T05:02:49.150Z,87.38
2022-08-11T05:03:49.137Z,87.38
2022-08-11T05:04:49.125Z,87.38
2022-08-11T05:05:55.368Z,87.49
2022-08-11T05:06:50.117Z,87.49
2022-08-11T05:07:49.101Z,87.24
2022-08-11T05:08:49.105Z,87.75
2022-08-11T05:09:49.064Z,87.55
2022-08-11T05:10:49.056Z,87.34
2022-08-11T05:11:49.131Z,87.55
2022-08-11T05:12:49.054Z,85.53
2022-08-11T05:13:49.040Z,84.04
2022-08-11T05:14:49.027Z,83.59
2022-08-11T05:15:51.575Z,82.54
2022-08-11T05:16:49.030Z,81.69
2022-08-11T05:17:48.994Z,81.79
2022-08-11T05:18:48.994Z,79.57
2022-08-11T05:19:48.964Z,80.18
2022-08-11T05:20:48.951Z,80.07
2022-08-11T05:21:48.944Z,79.19
2022-08-11T05:22:48.929Z,80.71
2022-08-11T05:23:48.946Z,80.16
2022-08-11T05:24:48.917Z,79.66
2022-08-11T05:26:44.984Z,78.67
2022-08-11T05:26:50.043Z,79.44
2022-08-11T05:27:48.875Z,77.79
2022-08-11T05:28:48.882Z,77.25
2022-08-11T05:29:48.867Z,76.14
2022-08-11T05:30:48.847Z,75.43
2022-08-11T05:31:48.836Z,77.39
2022-08-11T05:32:48.823Z,78.09
2022-08-11T05:33:48.820Z,78.36
2022-08-11T05:34:48.800Z,76.61
2022-08-11T05:36:01.501Z,76.10
2022-08-11T05:36:49.786Z,75.40
2022-08-11T05:37:48.785Z,73.68
2022-08-11T05:38:48.753Z,75.60
2022-08-11T05:39:48.767Z,73.58
2022-08-11T05:40:51.382Z,74.29
2022-08-11T05:41:48.734Z,73.68
2022-08-11T05:42:48.701Z,72.74
2022-08-11T05:44:20.193Z,74.12
2022-08-11T05:44:49.685Z,73.75
2022-08-11T05:46:02.885Z,74.59
2022-08-11T05:46:49.661Z,74.05
2022-08-11T05:47:48.652Z,74.12
2022-08-11T05:48:48.655Z,75.09
2022-08-11T05:49:48.720Z,71.97
2022-08-11T05:50:48.623Z,73.55
2022-08-11T05:51:55.523Z,73.28
2022-08-11T05:52:55.330Z,74.49
2022-08-11T05:53:49.593Z,74.99
2022-08-11T05:54:48.573Z,72.77
2022-08-11T05:56:02.247Z,75.15
2022-08-11T05:56:49.568Z,73.58
2022-08-11T05:57:51.500Z,74.32
2022-08-11T05:58:48.544Z,76.12
2022-08-11T05:59:48.519Z,71.50
2022-08-11T06:00:48.515Z,72.61
2022-08-11T06:01:48.531Z,71.90
2022-08-11T06:02:48.494Z,69.99
2022-08-11T06:03:58.100Z,69.89
2022-08-11T06:04:49.479Z,70.59
2022-08-11T06:05:48.455Z,70.36
2022-08-11T06:06:48.451Z,70.86
2022-08-11T06:07:49.530Z,71.00
2022-08-11T06:08:48.430Z,70.96
2022-08-11T06:09:48.414Z,71.16
2022-08-11T06:10:48.419Z,69.09
2022-08-11T06:11:48.393Z,68.68
2022-08-11T06:12:48.380Z,69.18
2022-08-11T06:13:48.421Z,69.49
2022-08-11T06:14:48.358Z,69.29
2022-08-11T06:15:48.408Z,70.50
2022-08-11T06:16:48.431Z,69.52
2022-08-11T06:17:48.318Z,70.73
2022-08-11T06:18:48.314Z,71.43
2022-08-11T06:19:48.306Z,70.50
2022-08-11T06:20:48.300Z,72.17
2022-08-11T06:21:48.278Z,71.03
2022-08-11T06:22:52.470Z,71.56
2022-08-11T06:23:48.269Z,72.17
2022-08-11T06:24:48.267Z,71.53
2022-08-11T06:25:48.235Z,71.60
2022-08-11T06:27:09.083Z,70.76
2022-08-11T06:27:49.218Z,71.16
2022-08-11T06:28:48.200Z,71.87
2022-08-11T06:29:55.123Z,71.53
2022-08-11T06:30:49.238Z,70.23
2022-08-11T06:31:48.164Z,70.63
2022-08-11T06:32:48.168Z,71.67
2022-08-11T06:33:48.149Z,71.43
2022-08-11T06:34:48.131Z,71.94
2022-08-11T06:35:48.132Z,70.43
2022-08-11T06:36:48.110Z,70.29
2022-08-11T06:37:48.131Z,69.99
2022-08-11T06:38:48.085Z,71.50
2022-08-11T06:39:48.213Z,71.26
2022-08-11T06:40:48.072Z,71.77
2022-08-11T06:41:48.067Z,69.89
2022-08-11T06:42:48.059Z,72.97
2022-08-11T06:43:55.406Z,69.65
2022-08-11T06:44:49.035Z,72.00
2022-08-11T06:45:48.017Z,71.47
2022-08-11T06:46:48.011Z,69.49
2022-08-11T06:47:47.999Z,69.99
2022-08-11T06:48:48.007Z,70.43
2022-08-11T06:49:47.986Z,69.32
2022-08-11T06:50:48.008Z,69.12
2022-08-11T06:51:47.948Z,69.85
2022-08-11T06:52:48.119Z,71.53
2022-08-11T06:54:03.043Z,71.77
2022-08-11T06:54:48.909Z,72.30
2022-08-11T06:55:56.924Z,73.14
2022-08-11T06:56:57.484Z,71.30
2022-08-11T06:57:48.880Z,69.59
2022-08-11T06:58:47.893Z,69.89
2022-08-11T06:59:47.873Z,69.76
2022-08-11T07:00:47.860Z,69.09
2022-08-11T07:01:49.426Z,71.13
2022-08-11T07:02:47.829Z,70.53
2022-08-11T07:03:47.824Z,69.59
2022-08-11T07:04:47.818Z,69.15
2022-08-11T07:05:47.791Z,71.06
2022-08-11T07:06:50.900Z,69.85
2022-08-11T07:07:47.786Z,69.62
2022-08-11T07:08:47.763Z,68.79
2022-08-11T07:09:47.768Z,68.08
2022-08-11T07:10:47.741Z,67.82
2022-08-11T07:11:47.769Z,67.49
2022-08-11T07:12:47.715Z,66.78
2022-08-11T07:13:47.739Z,67.25
2022-08-11T07:14:47.697Z,68.19
2022-08-11T07:16:10.763Z,69.62
2022-08-11T07:16:48.707Z,67.92
2022-08-11T07:17:47.681Z,67.61
2022-08-11T07:18:47.655Z,68.12
2022-08-11T07:19:47.653Z,68.42
2022-08-11T07:20:47.660Z,67.76
2022-08-11T07:22:00.944Z,67.22
2022-08-11T07:22:48.637Z,67.35
2022-08-11T07:23:47.598Z,67.08
2022-08-11T07:24:59.628Z,68.62
2022-08-11T07:25:48.611Z,67.55
2022-08-11T07:26:47.572Z,66.22
2022-08-11T07:27:47.564Z,66.66
2022-08-11T07:28:47.566Z,66.02
2022-08-11T07:29:47.603Z,66.92
2022-08-11T07:30:47.531Z,66.69
2022-08-11T07:31:48.513Z,66.42
2022-08-11T07:32:47.502Z,65.72
2022-08-11T07:34:05.879Z,67.05
2022-08-11T07:34:48.499Z,66.99
2022-08-11T07:35:47.470Z,68.19
2022-08-11T07:36:47.450Z,69.02
2022-08-11T07:37:47.447Z,66.78
2022-08-11T07:38:47.776Z,66.69
2022-08-11T07:39:47.488Z,68.39
2022-08-11T07:40:47.420Z,67.19
2022-08-11T07:41:47.419Z,65.45
2022-08-11T07:42:47.434Z,64.55
2022-08-11T07:43:47.380Z,66.39
2022-08-11T07:44:47.379Z,67.76
2022-08-11T07:45:47.396Z,67.62
2022-08-11T07:46:47.347Z,67.62
2022-08-11T07:47:47.336Z,66.19
2022-08-11T07:48:47.390Z,65.82
2022-08-11T07:49:47.318Z,67.12
2022-08-11T07:50:47.306Z,66.72
2022-08-11T07:51:47.304Z,68.69
2022-08-11T07:52:47.293Z,64.22
2022-08-11T07:53:58.271Z,64.31
2022-08-11T07:54:51.345Z,65.09
2022-08-11T07:55:51.889Z,63.75
2022-08-11T07:56:54.969Z,66.36
2022-08-11T07:58:15.136Z,65.45
2022-08-11T07:58:53.138Z,66.36
2022-08-11T08:00:03.598Z,65.16
2022-08-11T08:00:49.102Z,67.49
2022-08-11T08:01:47.248Z,63.95
2022-08-11T08:02:47.229Z,66.69
2022-08-11T08:03:53.694Z,66.16
2022-08-11T08:04:48.144Z,65.96
2022-08-11T08:05:47.146Z,64.60
2022-08-11T08:06:47.175Z,65.90
2022-08-11T08:07:47.133Z,64.53
2022-08-11T08:08:47.117Z,64.53
2022-08-11T08:09:47.139Z,65.10
2022-08-11T08:10:47.083Z,62.67
2022-08-11T08:11:47.071Z,63.50
2022-08-11T08:12:47.068Z,66.80
2022-08-11T08:13:47.050Z,62.15
2022-08-11T08:14:47.054Z,61.08
2022-08-11T08:15:47.048Z,61.77
2022-08-11T08:16:47.044Z,63.17
2022-08-11T08:18:09.093Z,62.53
2022-08-11T08:18:48.007Z,65.26
2022-08-11T08:19:46.992Z,65.13
2022-08-11T08:20:47.014Z,64.30
2022-08-11T08:21:46.969Z,65.37
2022-08-11T08:22:48.694Z,64.18
2022-08-11T08:23:46.975Z,62.18
2022-08-11T08:24:46.931Z,61.29
2022-08-11T08:25:46.929Z,59.69
2022-08-11T08:26:51.400Z,61.06
2022-08-11T08:27:47.903Z,59.23
2022-08-11T08:28:46.906Z,61.39
2022-08-11T08:29:46.878Z,62.48
2022-08-11T08:30:46.865Z,62.08
2022-08-11T08:31:46.868Z,61.58
2022-08-11T08:32:46.879Z,61.10
2022-08-11T08:33:46.833Z,64.26
2022-08-11T08:34:46.820Z,63.47
2022-08-11T08:35:54.579Z,60.95
2022-08-11T08:36:47.855Z,62.98
2022-08-11T08:37:47.819Z,60.25
2022-08-11T08:38:46.833Z,62.70
2022-08-11T08:39:46.792Z,61.54
2022-08-11T08:40:46.750Z,63.50
2022-08-11T09:12:42.903Z,59.62
2022-08-11T09:13:42.731Z,58.42
2022-08-11T09:14:15.206Z,59.42
2022-08-11T09:15:13.563Z,59.58
2022-08-11T09:16:13.551Z,59.72
2022-08-11T09:17:13.543Z,58.25
2022-08-11T09:18:13.531Z,61.55
2022-08-11T09:19:13.547Z,58.09
2022-08-11T09:20:13.544Z,57.12
2022-08-11T09:21:13.502Z,58.51
2022-08-11T09:22:13.504Z,58.71
2022-08-11T09:24:24.852Z,60.56
2022-08-11T09:25:14.473Z,57.64
2022-08-11T09:26:13.551Z,56.42
2022-08-11T09:27:13.435Z,57.84
2022-08-11T09:28:13.421Z,57.10
2022-08-11T09:29:13.414Z,57.46
2022-08-11T09:30:13.454Z,57.53
2022-08-11T09:31:13.665Z,56.81
2022-08-11T09:32:13.379Z,58.07
2022-08-11T09:33:13.365Z,59.06
2022-08-11T09:34:13.359Z,57.47
2022-08-11T09:35:13.351Z,57.13
2022-08-11T09:36:13.390Z,58.58
2022-08-11T09:37:13.390Z,59.11
2022-08-11T09:38:14.331Z,59.11
2022-08-11T09:39:13.405Z,59.23
2022-08-11T09:40:13.286Z,61.76
2022-08-11T09:41:13.286Z,61.51
2022-08-11T09:42:16.668Z,59.51
2022-08-11T09:43:14.259Z,59.98
2022-08-11T09:44:13.259Z,59.32
2022-08-11T09:45:13.241Z,57.67
2022-08-11T09:46:13.228Z,56.18
2022-08-11T09:47:13.218Z,58.47
2022-08-11T09:48:13.219Z,59.27
2022-08-11T09:49:13.197Z,56.98
2022-08-11T09:50:13.197Z,57.67
2022-08-11T09:51:13.166Z,57.35
2022-08-11T09:52:13.148Z,54.08
2022-08-11T09:53:37.120Z,55.95
2022-08-11T09:54:14.134Z,57.54
2022-08-11T09:55:13.149Z,56.27
2022-08-11T09:56:13.144Z,53.66
2022-08-11T09:57:13.111Z,55.72
2022-08-11T09:58:13.161Z,54.43
2022-08-11T09:59:14.080Z,56.19
2022-08-11T10:00:13.937Z,53.51
2022-08-11T10:01:13.103Z,53.56
2022-08-11T10:02:13.058Z,55.52
2022-08-11T10:03:13.066Z,51.25
2022-08-11T10:04:13.031Z,53.80
2022-08-11T10:05:13.017Z,54.43
2022-08-11T10:06:12.994Z,54.97
2022-08-11T10:07:13.040Z,53.56
2022-08-11T10:08:13.008Z,54.13
2022-08-11T10:09:12.994Z,49.76
2022-08-11T10:10:12.957Z,52.14
2022-08-11T10:11:12.948Z,51.50
2022-08-11T10:12:12.948Z,53.75
2022-08-11T10:14:32.080Z,51.72
2022-08-11T10:14:32.883Z,53.78
2022-08-11T10:15:13.909Z,52.56
2022-08-11T10:16:16.309Z,51.60
2022-08-11T10:17:12.949Z,53.53
2022-08-11T10:18:13.024Z,50.68
2022-08-11T10:19:12.885Z,47.83
2022-08-11T10:20:12.849Z,50.68
2022-08-11T10:21:12.840Z,48.40
2022-08-11T10:22:12.843Z,48.25
2022-08-11T10:23:12.819Z,51.65
2022-08-11T10:24:12.821Z,53.63
2022-08-11T10:25:12.793Z,52.67
2022-08-11T10:26:12.782Z,50.31
2022-08-11T10:27:12.808Z,51.12
2022-08-11T10:28:32.973Z,49.85
2022-08-11T10:29:14.085Z,51.77
2022-08-11T10:30:12.744Z,52.17
2022-08-11T10:31:13.759Z,51.47
2022-08-11T10:32:12.719Z,52.81
2022-08-11T10:33:12.714Z,51.47
2022-08-11T10:34:13.750Z,52.54
2022-08-11T10:35:12.690Z,52.59
2022-08-11T10:36:16.473Z,53.83
2022-08-11T10:37:14.933Z,52.88
2022-08-11T10:38:12.695Z,47.34
2022-08-11T10:39:12.677Z,51.03
2022-08-11T10:40:12.725Z,50.90
2022-08-11T10:41:12.625Z,47.44
2022-08-11T10:42:21.036Z,45.90
2022-08-11T10:43:14.499Z,48.72
2022-08-11T10:44:13.590Z,49.54
2022-08-11T10:45:12.615Z,49.54
2022-08-11T10:46:12.614Z,48.76
2022-08-11T10:47:12.569Z,49.76
2022-08-11T10:48:15.662Z,51.50
2022-08-11T10:49:12.549Z,50.78
2022-08-11T10:50:12.535Z,47.99
2022-08-11T10:51:12.533Z,50.80
2022-08-11T10:52:12.509Z,49.04
2022-08-11T10:53:12.520Z,48.66
2022-08-11T10:54:12.775Z,45.97
2022-08-11T10:55:12.496Z,47.19
2022-08-11T10:56:12.468Z,47.59
2022-08-11T10:57:12.693Z,47.89
2022-08-11T10:58:12.447Z,47.89
2022-08-11T10:59:12.433Z,48.88
2022-08-11T11:00:12.460Z,47.41
2022-08-11T11:01:12.507Z,49.30
2022-08-11T11:02:12.409Z,48.83
2022-08-11T11:03:22.797Z,47.36
2022-08-11T11:04:13.400Z,48.16
2022-08-11T11:05:12.376Z,47.75
2022-08-11T11:06:27.566Z,47.74
2022-08-11T11:07:13.363Z,47.14
2022-08-11T11:08:12.352Z,46.64
2022-08-11T11:09:12.435Z,47.63
2022-08-11T11:10:12.396Z,46.34
2022-08-11T11:11:12.315Z,47.63
2022-08-11T11:12:13.295Z,47.24
2022-08-11T11:13:12.289Z,48.63
2022-08-11T11:14:12.271Z,47.63
2022-08-11T11:15:17.901Z,48.23
2022-08-11T11:16:13.254Z,45.96
2022-08-11T11:17:14.139Z,45.56
2022-08-11T11:18:12.247Z,48.23
2022-08-11T11:19:12.225Z,49.30
2022-08-11T11:20:34.578Z,48.16
2022-08-11T11:21:13.239Z,45.57
2022-08-11T11:22:12.186Z,45.37
2022-08-11T11:23:12.404Z,49.88
2022-08-11T11:24:12.163Z,45.81
2022-08-11T11:25:12.166Z,50.43
2022-08-11T11:26:12.168Z,47.03
2022-08-11T11:27:12.132Z,47.50
2022-08-11T11:28:12.119Z,45.50
2022-08-11T11:29:12.146Z,45.92
2022-08-11T11:30:12.097Z,46.64
2022-08-11T11:31:12.091Z,46.73
2022-08-11T11:32:12.081Z,46.28
2022-08-11T11:33:12.086Z,45.51
2022-08-11T11:34:13.045Z,45.93
2022-08-11T11:35:12.056Z,45.87
2022-08-11T11:36:12.052Z,47.59
2022-08-11T11:37:12.024Z,47.11
2022-08-11T11:38:14.175Z,48.21
2022-08-11T11:39:12.091Z,46.64
2022-08-11T11:40:11.995Z,48.83
2022-08-11T11:41:11.997Z,50.52
2022-08-11T11:42:12.039Z,48.93
2022-08-11T11:43:11.969Z,48.05
2022-08-11T11:44:11.947Z,48.55
2022-08-11T11:45:23.445Z,50.05
2022-08-11T11:46:12.943Z,49.65
2022-08-11T11:47:11.975Z,48.43
2022-08-11T11:48:11.902Z,47.75
2022-08-11T11:49:17.085Z,49.27
2022-08-11T11:50:12.970Z,50.25
2022-08-11T11:51:11.864Z,49.85
2022-08-11T11:52:11.871Z,49.25
2022-08-11T11:53:11.917Z,49.65
2022-08-11T11:54:11.846Z,50.62
2022-08-11T11:55:11.898Z,51.15
2022-08-11T11:56:11.808Z,51.52
2022-08-11T11:57:11.802Z,50.52
2022-08-11T11:58:11.895Z,48.43
2022-08-11T11:59:14.655Z,48.25
2022-08-11T12:00:11.805Z,47.33
2022-08-11T12:01:11.758Z,47.44
2022-08-11T12:02:12.629Z,47.83
2022-08-11T12:03:11.764Z,47.63
2022-08-11T12:04:11.838Z,48.58
2022-08-11T12:05:11.720Z,48.36
2022-08-11T12:06:11.746Z,48.26
2022-08-11T12:07:11.688Z,48.74
2022-08-11T12:08:13.180Z,47.44
2022-08-11T12:09:11.690Z,50.50
2022-08-11T12:10:11.734Z,46.23
2022-08-11T12:11:11.707Z,46.60
2022-08-11T12:12:11.633Z,45.51
2022-08-11T12:13:11.628Z,47.40
2022-08-11T12:14:11.619Z,45.21
2022-08-11T12:15:11.621Z,47.45
2022-08-11T12:16:34.294Z,44.89
2022-08-11T12:17:12.576Z,47.80
2022-08-11T12:18:11.603Z,48.52
2022-08-11T12:19:11.570Z,48.91
2022-08-11T12:20:31.817Z,46.65
2022-08-11T12:21:12.649Z,47.96
2022-08-11T12:22:11.529Z,47.47
2022-08-11T12:23:11.525Z,50.08
2022-08-11T12:24:11.499Z,50.18
2022-08-11T12:25:11.496Z,50.63
2022-08-11T12:26:27.072Z,50.00
2022-08-11T12:27:16.080Z,50.73
2022-08-11T12:28:11.466Z,51.92
2022-08-11T12:29:11.478Z,50.92
2022-08-11T12:30:11.447Z,51.72
2022-08-11T12:31:11.435Z,52.22
2022-08-11T12:32:11.537Z,51.82
2022-08-11T12:33:11.416Z,53.34
2022-08-11T12:34:11.413Z,52.19
2022-08-11T12:35:11.414Z,52.79
2022-08-11T12:36:11.382Z,52.47
2022-08-11T12:37:13.251Z,51.59
2022-08-11T12:38:12.716Z,51.79
2022-08-11T12:39:22.977Z,51.92
2022-08-11T12:40:42.693Z,52.02
2022-08-11T12:41:15.031Z,52.09
2022-08-11T12:42:11.305Z,50.55
2022-08-11T12:43:21.882Z,49.23
2022-08-11T12:44:12.298Z,50.48
2022-08-11T12:45:22.594Z,47.99
2022-08-11T12:46:12.277Z,49.38
2022-08-11T12:47:11.257Z,50.28
2022-08-11T12:48:59.589Z,49.96
2022-08-11T12:49:12.238Z,48.47
2022-08-11T12:50:22.896Z,47.67
2022-08-11T12:51:12.210Z,46.78
2022-08-11T12:52:15.346Z,48.74
2022-08-11T12:53:11.208Z,50.53
2022-08-11T12:54:11.181Z,47.43
2022-08-11T12:55:13.759Z,46.04
2022-08-11T12:56:11.161Z,47.43
2022-08-11T12:57:11.159Z,46.93
2022-08-11T12:58:11.150Z,46.04
2022-08-11T12:59:11.136Z,46.58
2022-08-11T13:00:11.225Z,48.14
2022-08-11T13:01:12.584Z,48.91
2022-08-11T13:02:11.163Z,46.13
2022-08-11T13:03:11.081Z,45.31
2022-08-11T13:04:11.099Z,46.05
2022-08-11T13:05:11.317Z,47.17
2022-08-11T13:06:11.061Z,48.41
2022-08-11T13:07:11.041Z,50.40
2022-08-11T13:08:11.081Z,50.52
2022-08-11T13:09:11.024Z,50.23
2022-08-11T13:10:16.787Z,50.02
2022-08-11T13:11:11.992Z,50.62
2022-08-11T13:12:10.993Z,51.62
2022-08-11T13:13:52.998Z,51.84
2022-08-11T13:14:14.965Z,53.04
2022-08-11T13:15:10.953Z,51.95
2022-08-11T13:16:10.957Z,52.51
2022-08-11T13:17:10.929Z,52.44
2022-08-11T13:18:11.003Z,51.95
2022-08-11T13:19:10.909Z,51.67
2022-08-11T13:20:10.921Z,53.04
2022-08-11T13:21:10.886Z,52.14
2022-08-11T13:22:11.363Z,51.05
2022-08-11T13:23:10.863Z,51.37
2022-08-11T13:24:10.858Z,50.25